Aeroporto :
LOGIN :

Iscrizione | Disclaimer

   EN    FR    IT 

 










Sommario :    VFR   VFR Marginale   IFR   IFR Intensivo   IFR Molto Intensivo
Visibilità : 
Base nubi : 
>= 8 km
>= 3000ft
5 / 8 km
1000 / 3000 ft
1500m / 5 km
500 / 1000 ft
800 / 1500m
200 / 500 ft
< 800m
< 200 ft
Simboli :   Temporali  Nebbia  Neve Forte  Precipitazioni Forti  Vento > 20 kt
SIGMETs :   Varie  Temporali  Ghiacco  Turbolenza  Onda orograficha  Ceneri Vulcaniche






- Altitudine del aeroporto : -13 ft
- Codice IATA : LEY


EHLE - Lelystad

ULTIMO METAR :
  • 260225Z AUTO 03001KT 9999 BR NSC 07/07 Q1035

METARs OBSOLETI :
  • 260155Z AUTO 08001KT 9999 NSC 08/08 Q1035
  • 260125Z AUTO 08001KT 9999 NSC 08/08 Q1035
  • 260055Z AUTO 06002KT 9999 NSC 09/09 Q1035
  • 260025Z AUTO 32001KT 9999 NCD 08/08 Q1035
  • 252355Z AUTO 03002KT 9999 NSC 09/09 Q1035

TAF TAF EHLE
Valido dal 26 a 00 ore il 27 a 06 ore UTC


252307Z 2600/2706 VRB03KT CAVOK
PROB40
TEMPO 2600/2605 1200 BCFG
PROB30
TEMPO 2702/2705 4000 BR MIFG



MetMap, La meteo Aeronautica in un colpo d'occhio ! - Copyright ORBIFLY Dicembre 2007 - Disclaimer

ORBIFLY MET'MAP TEAM :

Programmazione e sviluppo : Alexandra Zaïnal
Concezione : Baudouin d'Aumeries
Aiuto per la programmazione : Marc-Olivier Méhu
Supporto tecnico e logistico : Manuel Goepfert
Aiuto per la traduzione : Arnaldo La Scala

Contatto : metmap@orbifly.com




FONTI E CREDITI :

   NOAA